Time;durP1;ratioP1;P1;durP2;ratioP2;P2;SDS_P1;SDS_P2;PMS_P1;PMS_P2;Temp;Humidity;BMP_temperature;BMP_pressure;BME280_temperature;BME280_humidity;BME280_pressure;Samples;Min_cycle;Max_cycle;Signal;HPM_P1;HPM_P2
2022/04/14 07:56:34;;;;;;;;;2.00;2.00;;;;;;;;1558725;27;83130;-76
2022/04/14 07:57:19;;;;;;;;;6.00;6.00;;;;;;;;1559530;28;83899;-75
2022/04/14 07:58:07;;;;;;;;;4.33;4.33;;;;;;;;1559499;28;83789;-74
2022/04/14 07:58:52;;;;;;;;;4.25;4.25;;;;;;;;1558245;27;83658;-74
2022/04/14 07:59:37;;;;;;;;;4.33;4.33;;;;;;;;1559009;28;83543;-73
2022/04/14 08:00:23;;;;;;;;;3.33;3.33;;;;;;;;1567184;27;85015;-73
2022/04/14 08:01:08;;;;;;;;;4.33;4.33;;;;;;;;1571825;27;83593;-73
2022/04/14 08:01:53;;;;;;;;;3.00;3.00;;;;;;;;1567840;27;83927;-73
2022/04/14 08:02:45;;;;;;;;;4.33;4.33;;;;;;;;1559559;28;83578;-73
2022/04/14 08:03:32;;;;;;;;;5.00;5.00;;;;;;;;1559469;28;83590;-73
2022/04/14 08:04:17;;;;;;;;;4.00;4.00;;;;;;;;1559461;28;83959;-73
2022/04/14 08:05:02;;;;;;;;;4.00;4.00;;;;;;;;1559634;28;84394;-73
2022/04/14 08:05:48;;;;;;;;;4.33;4.33;;;;;;;;1559546;28;83508;-73
2022/04/14 08:06:34;;;;;;;;;4.50;4.50;;;;;;;;1559213;28;83174;-73
2022/04/14 08:07:19;;;;;;;;;5.00;5.00;;;;;;;;1559595;28;83611;-74
2022/04/14 08:08:06;;;;;;;;;4.00;4.00;;;;;;;;1558663;28;85282;-72
2022/04/14 08:08:51;;;;;;;;;3.50;3.50;;;;;;;;1554784;27;84202;-72
2022/04/14 08:09:36;;;;;;;;;4.00;4.00;;;;;;;;1555115;27;83525;-72
2022/04/14 08:10:22;;;;;;;;;5.00;5.00;;;;;;;;1559057;28;83959;-72
2022/04/14 08:11:08;;;;;;;;;5.00;5.00;;;;;;;;1559472;28;84046;-72
2022/04/14 08:11:53;;;;;;;;;4.75;4.75;;;;;;;;1558859;28;86794;-72
2022/04/14 08:12:38;;;;;;;;;5.33;5.33;;;;;;;;1559047;28;83597;-72
2022/04/14 08:13:25;;;;;;;;;5.00;5.00;;;;;;;;1558483;28;83432;-72
2022/04/14 08:14:10;;;;;;;;;6.00;6.00;;;;;;;;1553770;27;83469;-72
2022/04/14 08:14:56;;;;;;;;;4.00;4.00;;;;;;;;1561432;27;84037;-72
2022/04/14 08:15:41;;;;;;;;;4.00;4.00;;;;;;;;1561497;27;83698;-72
2022/04/14 08:16:26;;;;;;;;;3.67;3.67;;;;;;;;1559376;28;83615;-72
2022/04/14 08:17:12;;;;;;;;;4.00;4.00;;;;;;;;1559447;28;83508;-72
2022/04/14 08:17:57;;;;;;;;;5.25;5.25;;;;;;;;1562345;28;83510;-72
2022/04/14 08:18:42;;;;;;;;;4.50;4.50;;;;;;;;1559406;27;84060;-73
2022/04/14 08:19:28;;;;;;;;;4.00;4.00;;;;;;;;1558883;28;85696;-72
2022/04/14 08:20:14;;;;;;;;;5.00;5.00;;;;;;;;1558972;28;84419;-72
2022/04/14 08:20:59;;;;;;;;;4.00;4.00;;;;;;;;1562994;27;84298;-72
2022/04/14 08:21:45;;;;;;;;;5.33;5.33;;;;;;;;1565332;27;83734;-72
2022/04/14 08:22:42;;;;;;;;;5.75;5.75;;;;;;;;1565659;27;84334;-72
2022/04/14 08:23:27;;;;;;;;;5.50;5.50;;;;;;;;1557498;27;87637;-72
2022/04/14 08:24:13;;;;;;;;;5.33;5.33;;;;;;;;1552772;28;84465;-72
2022/04/14 08:24:58;;;;;;;;;5.33;5.33;;;;;;;;1552917;28;83065;-72
2022/04/14 08:25:43;;;;;;;;;5.00;5.00;;;;;;;;1553129;28;84389;-72
2022/04/14 08:26:28;;;;;;;;;4.67;4.67;;;;;;;;1553184;28;83914;-72
2022/04/14 08:27:13;;;;;;;;;6.00;6.00;;;;;;;;1553210;28;84606;-72
2022/04/14 08:28:00;;;;;;;;;6.67;6.67;;;;;;;;1553301;28;83938;-72
2022/04/14 08:28:46;;;;;;;;;4.25;4.25;;;;;;;;1554398;28;84097;-72
2022/04/14 08:29:31;;;;;;;;;6.00;6.00;;;;;;;;1559764;27;84105;-72
2022/04/14 08:30:17;;;;;;;;;6.00;6.00;;;;;;;;1559382;27;83188;-72
2022/04/14 08:31:02;;;;;;;;;6.50;6.50;;;;;;;;1559559;28;83091;-72
2022/04/14 08:31:48;;;;;;;;;4.33;4.33;;;;;;;;1559381;27;84045;-72
2022/04/14 08:32:34;;;;;;;;;6.00;6.00;;;;;;;;1559433;28;84511;-72
2022/04/14 08:33:20;;;;;;;;;4.00;4.00;;;;;;;;1559358;27;83968;-72
2022/04/14 08:34:06;;;;;;;;;5.50;5.50;;;;;;;;1559420;28;84004;-72
2022/04/14 08:34:51;;;;;;;;;4.67;4.67;;;;;;;;1559306;27;84418;-72
2022/04/14 08:35:36;;;;;;;;;6.00;6.00;;;;;;;;1558786;28;84325;-73
2022/04/14 08:36:22;;;;;;;;;4.00;4.00;;;;;;;;1559299;28;83927;-73
2022/04/14 08:37:07;;;;;;;;;5.33;5.33;;;;;;;;1559499;28;83077;-73
2022/04/14 08:37:52;;;;;;;;;5.00;5.00;;;;;;;;1558221;27;84114;-73
2022/04/14 08:38:37;;;;;;;;;5.33;5.33;;;;;;;;1553627;28;83914;-73
2022/04/14 08:39:22;;;;;;;;;5.67;5.67;;;;;;;;1559350;28;82983;-73
2022/04/14 08:40:09;;;;;;;;;6.00;6.00;;;;;;;;1561943;28;83059;-73
2022/04/14 08:41:00;;;;;;;;;3.75;3.75;;;;;;;;1559384;28;83470;-73
2022/04/14 08:41:48;;;;;;;;;5.00;5.00;;;;;;;;1559401;28;83302;-73
2022/04/14 08:42:49;;;;;;;;;3.00;3.00;;;;;;;;1559328;28;83471;-73
2022/04/14 08:43:35;;;;;;;;;6.50;6.50;;;;;;;;1559275;28;83477;-73
2022/04/14 08:44:24;;;;;;;;;6.00;6.00;;;;;;;;1559253;28;83292;-73
2022/04/14 08:45:11;;;;;;;;;5.25;5.25;;;;;;;;1559484;28;83232;-74
2022/04/14 08:45:57;;;;;;;;;4.00;4.00;;;;;;;;1560484;27;83344;-73
2022/04/14 08:46:42;;;;;;;;;3.00;3.00;;;;;;;;1559243;28;83484;-73
2022/04/14 08:47:29;;;;;;;;;4.75;4.75;;;;;;;;1559151;28;84219;-76
2022/04/14 08:48:15;;;;;;;;;4.80;4.80;;;;;;;;1558731;28;83489;-73
2022/04/14 08:49:00;;;;;;;;;4.00;4.00;;;;;;;;1558860;28;83342;-73
2022/04/14 08:49:46;;;;;;;;;4.50;4.50;;;;;;;;1558991;28;83612;-73
2022/04/14 08:50:31;;;;;;;;;4.75;4.75;;;;;;;;1558969;28;83332;-74
2022/04/14 08:51:18;;;;;;;;;6.00;6.00;;;;;;;;1559342;28;83405;-73
2022/04/14 08:52:03;;;;;;;;;4.80;4.80;;;;;;;;1559380;28;83455;-73
2022/04/14 08:52:50;;;;;;;;;5.25;5.25;;;;;;;;1558238;28;83078;-73
2022/04/14 08:53:37;;;;;;;;;4.80;4.80;;;;;;;;1559111;27;83603;-74
2022/04/14 08:54:23;;;;;;;;;4.00;4.00;;;;;;;;1559218;28;83005;-73
2022/04/14 08:55:10;;;;;;;;;5.00;5.00;;;;;;;;1558626;28;83716;-74
2022/04/14 08:55:56;;;;;;;;;2.80;2.80;;;;;;;;1558599;28;83447;-74
2022/04/14 08:56:41;;;;;;;;;3.20;3.20;;;;;;;;1558974;28;83441;-74
2022/04/14 08:57:27;;;;;;;;;5.00;5.00;;;;;;;;1559079;28;83550;-74
2022/04/14 08:58:13;;;;;;;;;5.00;5.00;;;;;;;;1557018;27;83379;-74
2022/04/14 08:59:00;;;;;;;;;4.00;4.00;;;;;;;;1553019;28;83457;-74
2022/04/14 08:59:46;;;;;;;;;4.80;4.80;;;;;;;;1552432;28;83825;-74
2022/04/14 09:00:32;;;;;;;;;5.80;5.80;;;;;;;;1552492;28;83457;-74
2022/04/14 09:01:17;;;;;;;;;5.00;5.00;;;;;;;;1552772;28;83265;-74
2022/04/14 09:02:04;;;;;;;;;6.00;6.00;;;;;;;;1555939;28;83557;-74
2022/04/14 09:02:51;;;;;;;;;4.20;4.20;;;;;;;;1552931;28;83693;-74
2022/04/14 09:03:37;;;;;;;;;5.60;5.60;;;;;;;;1558016;28;83769;-74
2022/04/14 09:04:22;;;;;;;;;5.00;5.00;;;;;;;;1558762;28;84062;-74
2022/04/14 09:05:07;;;;;;;;;5.00;5.00;;;;;;;;1558732;28;83457;-72
2022/04/14 09:05:55;;;;;;;;;4.00;4.00;;;;;;;;1554167;28;83456;-71
2022/04/14 09:06:40;;;;;;;;;4.60;4.60;;;;;;;;1553036;28;83775;-72
2022/04/14 09:07:25;;;;;;;;;5.00;5.00;;;;;;;;1552020;28;84165;-71
2022/04/14 09:08:10;;;;;;;;;3.50;3.50;;;;;;;;1548346;28;83817;-72
2022/04/14 09:08:59;;;;;;;;;4.75;4.75;;;;;;;;1551403;28;83647;-72
2022/04/14 09:09:45;;;;;;;;;3.40;3.40;;;;;;;;1554961;28;83957;-72
2022/04/14 09:10:30;;;;;;;;;4.50;4.50;;;;;;;;1554931;28;83911;-72
2022/04/14 09:11:16;;;;;;;;;3.50;3.50;;;;;;;;1555178;28;83909;-72
2022/04/14 09:12:02;;;;;;;;;3.00;3.00;;;;;;;;1556112;28;84061;-72
2022/04/14 09:12:48;;;;;;;;;3.00;3.00;;;;;;;;1555067;28;83432;-72
2022/04/14 09:13:37;;;;;;;;;3.00;3.00;;;;;;;;1554622;28;83704;-73
2022/04/14 09:14:22;;;;;;;;;4.20;4.20;;;;;;;;1554953;28;83623;-72
2022/04/14 09:15:07;;;;;;;;;5.25;5.25;;;;;;;;1554973;28;83551;-72
2022/04/14 09:15:53;;;;;;;;;4.25;4.25;;;;;;;;1554719;28;83724;-72
2022/04/14 09:16:38;;;;;;;;;4.25;4.25;;;;;;;;1554812;28;83673;-72
2022/04/14 09:17:23;;;;;;;;;4.50;4.50;;;;;;;;1554774;28;83727;-73
2022/04/14 09:18:08;;;;;;;;;4.75;4.75;;;;;;;;1553636;28;83579;-73
2022/04/14 09:18:55;;;;;;;;;4.50;4.50;;;;;;;;1554827;28;83505;-73
2022/04/14 09:19:41;;;;;;;;;4.00;4.00;;;;;;;;1555239;28;84012;-73
2022/04/14 09:20:40;;;;;;;;;5.00;5.00;;;;;;;;1559339;27;83385;-73
2022/04/14 09:21:25;;;;;;;;;3.60;3.60;;;;;;;;1561090;27;83523;-73
2022/04/14 09:22:11;;;;;;;;;5.25;5.25;;;;;;;;1557477;28;83983;-73
2022/04/14 09:23:20;;;;;;;;;2.40;2.40;;;;;;;;1553104;28;84201;-73
2022/04/14 09:24:05;;;;;;;;;4.00;4.00;;;;;;;;1550704;28;83856;-72
2022/04/14 09:24:50;;;;;;;;;4.00;4.00;;;;;;;;1551888;28;83452;-73
2022/04/14 09:25:36;;;;;;;;;5.25;5.25;;;;;;;;1551372;28;83964;-73
2022/04/14 09:26:24;;;;;;;;;4.00;4.00;;;;;;;;1548627;28;84191;-73
2022/04/14 09:27:21;;;;;;;;;5.20;5.20;;;;;;;;1548703;28;84148;-73
2022/04/14 09:28:19;;;;;;;;;5.80;5.80;;;;;;;;1548124;28;84182;-73
2022/04/14 09:29:06;;;;;;;;;5.00;5.00;;;;;;;;1548060;28;85447;-73
2022/04/14 09:29:51;;;;;;;;;4.80;4.80;;;;;;;;1548115;28;84188;-73
2022/04/14 09:30:37;;;;;;;;;4.00;4.00;;;;;;;;1548278;28;84352;-73
2022/04/14 09:31:22;;;;;;;;;5.25;5.25;;;;;;;;1548581;28;84553;-73
2022/04/14 09:32:07;;;;;;;;;6.50;6.50;;;;;;;;1548634;28;84643;-73
2022/04/14 09:32:55;;;;;;;;;3.75;3.75;;;;;;;;1549696;28;84662;-73
2022/04/14 09:33:48;;;;;;;;;7.00;7.00;;;;;;;;1554325;28;84165;-73
2022/04/14 09:34:41;;;;;;;;;3.00;3.00;;;;;;;;1554685;28;83186;-74
2022/04/14 09:35:31;;;;;;;;;6.40;6.40;;;;;;;;1550148;28;83451;-73
2022/04/14 09:36:17;;;;;;;;;5.20;5.20;;;;;;;;1548487;28;84488;-73
2022/04/14 09:37:09;;;;;;;;;5.40;5.40;;;;;;;;1548083;28;84238;-73
2022/04/14 09:38:04;;;;;;;;;3.00;3.00;;;;;;;;1550004;28;84177;-74
2022/04/14 09:38:57;;;;;;;;;4.00;4.00;;;;;;;;1554512;28;84523;-73
2022/04/14 09:39:49;;;;;;;;;2.40;2.40;;;;;;;;1554777;28;84439;-74
2022/04/14 09:40:34;;;;;;;;;3.80;3.80;;;;;;;;1554669;28;84302;-74
2022/04/14 09:41:28;;;;;;;;;5.50;5.50;;;;;;;;1554660;28;83364;-73
2022/04/14 09:42:13;;;;;;;;;4.20;4.20;;;;;;;;1554829;28;84249;-73
2022/04/14 09:42:59;;;;;;;;;5.00;5.00;;;;;;;;1554135;28;86979;-76
2022/04/14 09:43:54;;;;;;;;;3.80;3.80;;;;;;;;1554159;28;85099;-74
2022/04/14 09:44:40;;;;;;;;;2.00;2.00;;;;;;;;1554513;28;83963;-73
2022/04/14 09:45:26;;;;;;;;;6.50;4.50;;;;;;;;1552084;28;84906;-74
2022/04/14 09:46:19;;;;;;;;;7.40;7.40;;;;;;;;1548467;28;84523;-74
2022/04/14 09:47:04;;;;;;;;;8.40;8.40;;;;;;;;1548598;28;84140;-73
2022/04/14 09:47:50;;;;;;;;;6.00;6.00;;;;;;;;1557794;28;84168;-74
2022/04/14 09:48:55;;;;;;;;;7.80;7.80;;;;;;;;1554246;28;83601;-74
2022/04/14 09:49:41;;;;;;;;;7.80;7.80;;;;;;;;1553775;28;84201;-74
2022/04/14 09:50:39;;;;;;;;;7.25;7.25;;;;;;;;1553979;28;84584;-73
2022/04/14 09:51:27;;;;;;;;;6.80;6.80;;;;;;;;1555487;28;83356;-74
2022/04/14 09:52:13;;;;;;;;;6.00;6.00;;;;;;;;1555952;28;83840;-74
2022/04/14 09:52:59;;;;;;;;;7.00;7.00;;;;;;;;1554148;28;83465;-74
2022/04/14 09:53:45;;;;;;;;;5.00;5.00;;;;;;;;1554283;28;83386;-74
2022/04/14 09:54:30;;;;;;;;;5.00;5.00;;;;;;;;1553980;28;83559;-74
2022/04/14 09:55:15;;;;;;;;;4.00;4.00;;;;;;;;1553732;28;83329;-74
2022/04/14 09:56:01;;;;;;;;;4.00;4.00;;;;;;;;1554222;28;83553;-74
2022/04/14 09:56:46;;;;;;;;;5.00;5.00;;;;;;;;1554608;28;83402;-74
2022/04/14 09:57:31;;;;;;;;;6.25;6.25;;;;;;;;1554479;28;83399;-74
2022/04/14 09:58:18;;;;;;;;;4.25;4.25;;;;;;;;1553539;28;83619;-74
2022/04/14 09:59:09;;;;;;;;;6.20;6.20;;;;;;;;1554590;28;83615;-74
2022/04/14 09:59:54;;;;;;;;;6.80;6.80;;;;;;;;1554573;28;83608;-74
2022/04/14 10:00:40;;;;;;;;;8.00;8.00;;;;;;;;1554517;28;83487;-74
2022/04/14 10:01:25;;;;;;;;;7.00;7.00;;;;;;;;1554647;28;82972;-76
2022/04/14 10:02:12;;;;;;;;;5.60;5.60;;;;;;;;1553603;28;83490;-77
2022/04/14 10:03:07;;;;;;;;;5.20;5.20;;;;;;;;1546281;28;83999;-76
2022/04/14 10:03:54;;;;;;;;;4.00;4.00;;;;;;;;1551483;28;83199;-76
2022/04/14 10:04:40;;;;;;;;;7.00;7.00;;;;;;;;1554402;28;83139;-77
2022/04/14 10:05:35;;;;;;;;;7.00;7.00;;;;;;;;1554506;28;83404;-77
2022/04/14 10:06:20;;;;;;;;;6.60;6.60;;;;;;;;1553933;28;83707;-76
2022/04/14 10:07:07;;;;;;;;;6.00;6.00;;;;;;;;1554169;28;83194;-77
2022/04/14 10:07:59;;;;;;;;;6.60;6.60;;;;;;;;1553900;28;83317;-77
2022/04/14 10:08:48;;;;;;;;;4.40;4.40;;;;;;;;1554462;28;83594;-77
2022/04/14 10:09:39;;;;;;;;;4.00;4.00;;;;;;;;1554505;28;83188;-77
2022/04/14 10:10:24;;;;;;;;;4.60;4.60;;;;;;;;1556901;28;83878;-77
2022/04/14 10:11:09;;;;;;;;;5.00;5.00;;;;;;;;1554327;28;83920;-77
2022/04/14 10:11:54;;;;;;;;;4.25;4.25;;;;;;;;1554338;28;83882;-76
2022/04/14 10:12:40;;;;;;;;;4.00;4.00;;;;;;;;1554561;28;83701;-77
2022/04/14 10:13:32;;;;;;;;;2.00;2.00;;;;;;;;1554550;28;83629;-76
2022/04/14 10:14:23;;;;;;;;;5.00;5.00;;;;;;;;1554708;28;83794;-76
2022/04/14 10:15:09;;;;;;;;;2.80;2.80;;;;;;;;1554714;28;83698;-76
2022/04/14 10:15:55;;;;;;;;;3.00;3.00;;;;;;;;1553791;28;87102;-76
2022/04/14 10:16:40;;;;;;;;;2.40;2.40;;;;;;;;1554093;28;84006;-76
2022/04/14 10:17:26;;;;;;;;;2.00;2.00;;;;;;;;1550118;28;83903;-76
2022/04/14 10:18:12;;;;;;;;;2.80;2.80;;;;;;;;1548321;28;85528;-76
2022/04/14 10:18:59;;;;;;;;;1.20;1.20;;;;;;;;1548299;28;83597;-76
2022/04/14 10:19:45;;;;;;;;;2.60;2.60;;;;;;;;1547412;28;83964;-76
2022/04/14 10:20:30;;;;;;;;;1.50;1.50;;;;;;;;1548322;28;83657;-77
2022/04/14 10:21:16;;;;;;;;;3.00;3.00;;;;;;;;1548419;28;83606;-76
2022/04/14 10:22:02;;;;;;;;;3.60;3.60;;;;;;;;1548176;28;83289;-77
2022/04/14 10:22:47;;;;;;;;;2.00;2.00;;;;;;;;1553466;28;83763;-76
2022/04/14 10:23:33;;;;;;;;;3.00;3.00;;;;;;;;1554490;28;83425;-77
2022/04/14 10:24:19;;;;;;;;;3.75;3.75;;;;;;;;1550383;28;83256;-77
2022/04/14 10:25:05;;;;;;;;;2.00;2.00;;;;;;;;1547746;28;86808;-77
2022/04/14 10:25:51;;;;;;;;;4.00;4.00;;;;;;;;1547909;28;83583;-72
2022/04/14 10:26:37;;;;;;;;;2.00;2.00;;;;;;;;1550793;28;83892;-73
2022/04/14 10:27:22;;;;;;;;;2.00;2.00;;;;;;;;1560807;27;83547;-72
2022/04/14 10:28:14;;;;;;;;;1.50;1.50;;;;;;;;1560769;27;83777;-76
2022/04/14 10:29:00;;;;;;;;;4.00;4.00;;;;;;;;1560598;27;83805;-76
2022/04/14 10:29:46;;;;;;;;;1.00;1.00;;;;;;;;1560630;27;84050;-77
2022/04/14 10:30:32;;;;;;;;;2.00;2.00;;;;;;;;1560766;28;83736;-76
2022/04/14 10:31:17;;;;;;;;;3.00;3.00;;;;;;;;1551488;27;83316;-76
2022/04/14 10:32:03;;;;;;;;;2.25;2.25;;;;;;;;1547758;28;84150;-77
2022/04/14 10:32:48;;;;;;;;;1.75;1.75;;;;;;;;1550960;28;83092;-76
2022/04/14 10:33:33;;;;;;;;;1.75;1.75;;;;;;;;1548087;28;83255;-76
2022/04/14 10:34:19;;;;;;;;;1.00;1.00;;;;;;;;1548055;28;83218;-77
2022/04/14 10:35:05;;;;;;;;;2.75;2.75;;;;;;;;1547836;28;84484;-77
2022/04/14 10:35:51;;;;;;;;;4.00;4.00;;;;;;;;1548047;28;83174;-76
2022/04/14 10:36:38;;;;;;;;;4.00;4.00;;;;;;;;1548195;28;83416;-77
2022/04/14 10:37:27;;;;;;;;;3.00;3.00;;;;;;;;1551958;28;84521;-77
2022/04/14 10:38:21;;;;;;;;;3.00;3.00;;;;;;;;1554540;28;82993;-77
2022/04/14 10:39:10;;;;;;;;;2.40;2.40;;;;;;;;1554571;28;84200;-77
2022/04/14 10:39:56;;;;;;;;;2.20;2.20;;;;;;;;1554506;28;84022;-77
2022/04/14 10:40:46;;;;;;;;;3.25;3.25;;;;;;;;1554469;28;84441;-77
2022/04/14 10:41:34;;;;;;;;;4.00;4.00;;;;;;;;1553814;28;84233;-77
2022/04/14 10:42:24;;;;;;;;;2.00;2.00;;;;;;;;1552651;28;83382;-77
2022/04/14 10:43:09;;;;;;;;;3.20;3.20;;;;;;;;1548194;28;85506;-77
2022/04/14 10:43:59;;;;;;;;;2.50;2.50;;;;;;;;1548208;28;84131;-77
2022/04/14 10:44:48;;;;;;;;;2.40;2.40;;;;;;;;1548047;28;84234;-77
2022/04/14 10:45:46;;;;;;;;;3.00;3.00;;;;;;;;1548298;28;84451;-78
2022/04/14 10:46:33;;;;;;;;;2.20;2.20;;;;;;;;1550210;28;84281;-77
2022/04/14 10:47:52;;;;;;;;;2.40;2.40;;;;;;;;1552351;28;84519;-77
2022/04/14 10:48:40;;;;;;;;;2.80;2.80;;;;;;;;1553870;28;84412;-77
2022/04/14 10:49:33;;;;;;;;;1.00;1.00;;;;;;;;1554079;28;84546;-78
2022/04/14 10:50:22;;;;;;;;;2.20;2.20;;;;;;;;1554308;28;84526;-78
2022/04/14 10:51:24;;;;;;;;;2.20;2.20;;;;;;;;1554509;28;84036;-78
2022/04/14 10:52:30;;;;;;;;;1.80;1.80;;;;;;;;1550401;28;85362;-77
2022/04/14 10:53:18;;;;;;;;;2.00;2.00;;;;;;;;1540692;28;86489;-77
2022/04/14 10:54:06;;;;;;;;;3.00;3.00;;;;;;;;1546427;28;84546;-77
2022/04/14 10:54:58;;;;;;;;;2.60;2.60;;;;;;;;1547968;28;84543;-78
2022/04/14 10:55:48;;;;;;;;;1.80;1.80;;;;;;;;1548003;28;84483;-78
2022/04/14 10:56:33;;;;;;;;;1.60;1.60;;;;;;;;1550916;28;84235;-78
2022/04/14 10:57:37;;;;;;;;;2.00;2.00;;;;;;;;1548344;28;83350;-78
2022/04/14 10:58:28;;;;;;;;;2.40;2.40;;;;;;;;1548314;28;83351;-78
2022/04/14 10:59:19;;;;;;;;;3.20;3.20;;;;;;;;1547684;28;84040;-78
2022/04/14 11:00:19;;;;;;;;;2.00;2.00;;;;;;;;1547758;28;83379;-78
2022/04/14 11:01:05;;;;;;;;;2.00;2.00;;;;;;;;1547751;28;83463;-78
2022/04/14 11:01:51;;;;;;;;;2.40;2.40;;;;;;;;1549534;28;83466;-78
2022/04/14 11:02:54;;;;;;;;;3.00;3.00;;;;;;;;1553746;28;83403;-77
2022/04/14 11:03:47;;;;;;;;;2.80;2.80;;;;;;;;1553717;28;83261;-77
2022/04/14 11:04:48;;;;;;;;;2.00;2.00;;;;;;;;1554355;28;83724;-77
2022/04/14 11:05:51;;;;;;;;;2.00;2.00;;;;;;;;1554373;28;83332;-78
2022/04/14 11:06:40;;;;;;;;;2.00;2.00;;;;;;;;1553639;28;83448;-78
2022/04/14 11:07:25;;;;;;;;;1.20;1.20;;;;;;;;1548353;28;83411;-77
2022/04/14 11:08:24;;;;;;;;;1.00;1.00;;;;;;;;1548090;28;83319;-77
2022/04/14 11:09:28;;;;;;;;;2.60;2.60;;;;;;;;1547829;28;83356;-78
2022/04/14 11:10:13;;;;;;;;;2.00;2.00;;;;;;;;1548125;28;83288;-78
2022/04/14 11:11:01;;;;;;;;;3.00;3.00;;;;;;;;1547912;28;83589;-78
2022/04/14 11:11:59;;;;;;;;;2.00;2.00;;;;;;;;1548065;28;83378;-78
2022/04/14 11:12:44;;;;;;;;;1.00;1.00;;;;;;;;1548080;28;83594;-78
2022/04/14 11:13:48;;;;;;;;;3.50;1.75;;;;;;;;1547686;28;83602;-78
2022/04/14 11:14:37;;;;;;;;;2.00;2.00;;;;;;;;1547780;28;83206;-78
2022/04/14 11:15:32;;;;;;;;;2.00;2.00;;;;;;;;1547872;28;83207;-78
2022/04/14 11:16:36;;;;;;;;;2.00;2.00;;;;;;;;1547912;28;83394;-78
2022/04/14 11:17:30;;;;;;;;;1.00;1.00;;;;;;;;1548281;28;83271;-76
2022/04/14 11:18:16;;;;;;;;;1.80;1.80;;;;;;;;1548162;28;83414;-79
2022/04/14 11:19:20;;;;;;;;;0.20;0.20;;;;;;;;1547653;28;83552;-79
2022/04/14 11:20:14;;;;;;;;;2.00;2.00;;;;;;;;1541450;28;83959;-79
2022/04/14 11:21:00;;;;;;;;;2.00;2.00;;;;;;;;1547151;28;83440;-79
2022/04/14 11:22:01;;;;;;;;;1.00;1.00;;;;;;;;1544740;28;85079;-79
2022/04/14 11:23:01;;;;;;;;;1.00;1.00;;;;;;;;1550298;28;83398;-73
2022/04/14 11:23:52;;;;;;;;;2.00;2.00;;;;;;;;1548004;28;83890;-72
2022/04/14 11:24:40;;;;;;;;;1.60;0.00;;;;;;;;1548064;28;83759;-74
2022/04/14 11:26:39;;;;;;;;;1.00;1.00;;;;;;;;1547400;28;83390;-74
2022/04/14 11:27:24;;;;;;;;;0.40;0.40;;;;;;;;1548179;28;84003;-74
2022/04/14 11:28:30;;;;;;;;;0.00;0.00;;;;;;;;1547978;28;83378;-76
2022/04/14 11:29:15;;;;;;;;;1.60;1.60;;;;;;;;1547381;28;84706;-77
2022/04/14 11:30:03;;;;;;;;;1.00;1.00;;;;;;;;1547178;28;83681;-78
2022/04/14 11:30:49;;;;;;;;;0.40;0.40;;;;;;;;1547421;28;83288;-77
2022/04/14 11:31:34;;;;;;;;;0.60;0.60;;;;;;;;1549272;28;83255;-76
2022/04/14 11:32:45;;;;;;;;;1.00;1.00;;;;;;;;1547455;28;86725;-75
2022/04/14 11:33:30;;;;;;;;;2.00;2.00;;;;;;;;1550501;28;84110;-76
2022/04/14 11:34:30;;;;;;;;;1.00;1.00;;;;;;;;1549434;28;83789;-76
2022/04/14 11:35:18;;;;;;;;;1.00;1.00;;;;;;;;1548088;28;83199;-77
2022/04/14 11:36:08;;;;;;;;;1.60;1.60;;;;;;;;1549211;28;83751;-77
2022/04/14 11:36:54;;;;;;;;;2.00;2.00;;;;;;;;1552432;28;84011;-77
2022/04/14 11:37:40;;;;;;;;;1.00;1.00;;;;;;;;1554162;28;83693;-77
2022/04/14 11:38:44;;;;;;;;;0.00;0.00;;;;;;;;1553654;28;85054;-76
2022/04/14 11:39:30;;;;;;;;;0.60;0.60;;;;;;;;1550475;28;83855;-76
2022/04/14 11:40:21;;;;;;;;;1.00;1.00;;;;;;;;1547965;28;84017;-77
2022/04/14 11:41:07;;;;;;;;;0.80;0.80;;;;;;;;1548895;28;84639;-77
2022/04/14 11:41:53;;;;;;;;;1.00;1.00;;;;;;;;1553809;28;83884;-77
2022/04/14 11:42:38;;;;;;;;;0.80;0.80;;;;;;;;1553938;28;83623;-77
2022/04/14 11:43:23;;;;;;;;;0.75;0.75;;;;;;;;1554340;28;83759;-79
2022/04/14 11:44:08;;;;;;;;;0.00;0.00;;;;;;;;1553846;28;83599;-77
2022/04/14 11:44:59;;;;;;;;;2.00;0.00;;;;;;;;1554138;28;83964;-77
2022/04/14 11:45:45;;;;;;;;;0.00;0.00;;;;;;;;1553935;28;85922;-77
2022/04/14 11:46:30;;;;;;;;;0.80;0.80;;;;;;;;1552140;28;83424;-77
2022/04/14 11:47:16;;;;;;;;;0.00;0.00;;;;;;;;1548020;28;84953;-77
2022/04/14 11:48:03;;;;;;;;;1.00;1.00;;;;;;;;1547937;28;84114;-77
2022/04/14 11:48:49;;;;;;;;;0.00;0.00;;;;;;;;1547870;28;84036;-77
2022/04/14 11:49:34;;;;;;;;;0.00;0.00;;;;;;;;1548120;28;84130;-76
2022/04/14 11:50:26;;;;;;;;;0.00;0.00;;;;;;;;1547915;28;84590;-77
2022/04/14 11:51:11;;;;;;;;;0.00;0.00;;;;;;;;1547954;28;84197;-77
2022/04/14 11:51:57;;;;;;;;;0.00;0.00;;;;;;;;1554275;28;84174;-78
2022/04/14 11:52:44;;;;;;;;;0.00;0.00;;;;;;;;1554177;28;84221;-78
2022/04/14 11:53:29;;;;;;;;;0.00;0.00;;;;;;;;1553662;28;85832;-78
2022/04/14 11:54:21;;;;;;;;;0.00;0.00;;;;;;;;1553610;28;84325;-77
2022/04/14 11:55:06;;;;;;;;;0.40;0.40;;;;;;;;1553727;28;83974;-77
2022/04/14 11:55:51;;;;;;;;;0.00;0.00;;;;;;;;1554057;28;84461;-78
2022/04/14 11:56:37;;;;;;;;;0.00;0.00;;;;;;;;1554286;28;83196;-77
2022/04/14 11:57:29;;;;;;;;;0.25;0.00;;;;;;;;1554218;28;84431;-77
2022/04/14 11:58:18;;;;;;;;;0.00;0.00;;;;;;;;1553524;28;86104;-78
2022/04/14 11:59:08;;;;;;;;;0.00;0.00;;;;;;;;1551514;28;86829;-78
2022/04/14 11:59:56;;;;;;;;;0.00;0.00;;;;;;;;1553801;28;83963;-78
2022/04/14 12:00:45;;;;;;;;;0.60;0.00;;;;;;;;1550967;28;84037;-78
2022/04/14 12:01:32;;;;;;;;;0.00;0.00;;;;;;;;1548050;28;84218;-78
2022/04/14 12:02:18;;;;;;;;;0.00;0.00;;;;;;;;1553448;28;87548;-77
2022/04/14 12:03:03;;;;;;;;;0.00;0.00;;;;;;;;1553593;28;84570;-77
2022/04/14 12:03:48;;;;;;;;;0.00;0.00;;;;;;;;1548427;28;86021;-78
2022/04/14 12:04:35;;;;;;;;;1.25;1.25;;;;;;;;1547507;28;83399;-78
2022/04/14 12:05:22;;;;;;;;;1.20;1.20;;;;;;;;1547582;28;84479;-78
2022/04/14 12:06:08;;;;;;;;;0.60;0.60;;;;;;;;1547815;28;84165;-78
2022/04/14 12:06:55;;;;;;;;;1.00;0.40;;;;;;;;1547891;28;84219;-78
2022/04/14 12:07:40;;;;;;;;;1.00;1.00;;;;;;;;1547991;28;84239;-78
2022/04/14 12:08:25;;;;;;;;;1.00;1.00;;;;;;;;1548011;28;83031;-78
2022/04/14 12:09:17;;;;;;;;;0.00;0.00;;;;;;;;1550666;28;83261;-77
2022/04/14 12:10:06;;;;;;;;;0.40;0.00;;;;;;;;1547738;28;83511;-78
2022/04/14 12:10:52;;;;;;;;;0.00;0.00;;;;;;;;1547294;28;86847;-78
2022/04/14 12:11:37;;;;;;;;;0.50;0.50;;;;;;;;1547521;28;83205;-78
2022/04/14 12:12:23;;;;;;;;;0.00;0.00;;;;;;;;1549913;28;83381;-78
2022/04/14 12:13:08;;;;;;;;;0.00;0.00;;;;;;;;1553749;28;83375;-78
2022/04/14 12:13:54;;;;;;;;;0.20;0.20;;;;;;;;1553901;28;84301;-78
2022/04/14 12:14:40;;;;;;;;;0.25;0.00;;;;;;;;1554071;28;83492;-77
2022/04/14 12:15:25;;;;;;;;;1.40;0.00;;;;;;;;1554231;28;83085;-78
2022/04/14 12:16:11;;;;;;;;;0.00;0.00;;;;;;;;1553969;28;83527;-78
2022/04/14 12:16:56;;;;;;;;;0.00;0.00;;;;;;;;1554063;28;83651;-78
2022/04/14 12:17:41;;;;;;;;;0.00;0.00;;;;;;;;1549964;28;83361;-78
2022/04/14 12:18:26;;;;;;;;;0.00;0.00;;;;;;;;1548028;28;83155;-78
2022/04/14 12:19:12;;;;;;;;;0.00;0.00;;;;;;;;1547823;28;83528;-78
2022/04/14 12:19:58;;;;;;;;;0.00;0.00;;;;;;;;1547874;28;83535;-78
2022/04/14 12:20:44;;;;;;;;;0.00;0.00;;;;;;;;1547950;28;83224;-77
2022/04/14 12:21:29;;;;;;;;;0.00;0.00;;;;;;;;1547968;28;83593;-78
2022/04/14 12:22:14;;;;;;;;;0.00;0.00;;;;;;;;1547708;28;83496;-78
2022/04/14 12:22:59;;;;;;;;;1.25;0.00;;;;;;;;1547851;28;83063;-78
2022/04/14 12:23:48;;;;;;;;;0.00;0.00;;;;;;;;1547211;28;85036;-78
2022/04/14 12:24:34;;;;;;;;;0.00;0.00;;;;;;;;1547660;28;83416;-78
2022/04/14 12:25:19;;;;;;;;;0.00;0.00;;;;;;;;1547479;28;83536;-78
2022/04/14 12:26:04;;;;;;;;;0.00;0.00;;;;;;;;1547880;28;83708;-78
2022/04/14 12:26:49;;;;;;;;;0.00;0.00;;;;;;;;1547615;28;83369;-77
2022/04/14 12:27:37;;;;;;;;;1.00;0.00;;;;;;;;1553103;28;83350;-77
2022/04/14 12:28:22;;;;;;;;;0.40;0.00;;;;;;;;1554138;28;83356;-78
2022/04/14 12:29:08;;;;;;;;;0.00;0.00;;;;;;;;1553981;28;83563;-78
2022/04/14 12:29:54;;;;;;;;;0.00;0.00;;;;;;;;1554010;28;83321;-78
2022/04/14 12:30:42;;;;;;;;;0.00;0.00;;;;;;;;1556975;28;83316;-78
2022/04/14 12:31:29;;;;;;;;;0.00;0.00;;;;;;;;1553510;28;86809;-78
2022/04/14 12:32:16;;;;;;;;;0.00;0.00;;;;;;;;1552231;28;83356;-77
2022/04/14 12:33:05;;;;;;;;;0.00;0.00;;;;;;;;1553583;28;83157;-78
2022/04/14 12:33:57;;;;;;;;;0.00;0.00;;;;;;;;1553916;28;84022;-78
2022/04/14 12:34:43;;;;;;;;;0.00;0.00;;;;;;;;1553968;28;84056;-77
2022/04/14 12:35:33;;;;;;;;;0.00;0.00;;;;;;;;1554110;28;83673;-78
2022/04/14 12:36:18;;;;;;;;;0.00;0.00;;;;;;;;1553876;28;84195;-78
2022/04/14 12:37:14;;;;;;;;;0.00;0.00;;;;;;;;1554000;28;83815;-78
2022/04/14 12:38:11;;;;;;;;;0.00;0.00;;;;;;;;1554014;28;84054;-78
2022/04/14 12:38:56;;;;;;;;;0.00;0.00;;;;;;;;1553437;28;86398;-78
2022/04/14 12:39:54;;;;;;;;;0.00;0.00;;;;;;;;1553595;28;83981;-78
2022/04/14 12:40:56;;;;;;;;;0.00;0.00;;;;;;;;1553944;28;83243;-78
2022/04/14 12:41:41;;;;;;;;;0.00;0.00;;;;;;;;1553173;28;83187;-77
2022/04/14 12:42:31;;;;;;;;;0.00;0.00;;;;;;;;1548858;28;83672;-77
2022/04/14 12:43:28;;;;;;;;;0.00;0.00;;;;;;;;1548516;28;83630;-77
2022/04/14 12:44:22;;;;;;;;;0.00;0.00;;;;;;;;1548856;28;84063;-78
2022/04/14 12:45:08;;;;;;;;;0.60;0.20;;;;;;;;1548777;28;84060;-78
2022/04/14 12:45:57;;;;;;;;;0.80;0.80;;;;;;;;1548736;28;85802;-77
2022/04/14 12:46:42;;;;;;;;;1.00;0.00;;;;;;;;1548838;28;84046;-78